Lake Station, IN

6:24 PM CST on March 03, 2015 (GMT -0600)
Lake Dombey | Change Station
CLOSE
Current Station
Personal Weather Station
Location: Portage, IN
Elevation: 640 ft
Nearby Weather Stations

Elev 640 ft 41.58 °N, 87.21 °W | Updated 8 seconds ago

Overcast
Overcast
35.3 °F
Feels Like 32 °F
N
3.6
Wind Variable Wind from West
Gusts 7.2 mph

Today
High -- | Low -- °F
--% Chance of Precip.
Yesterday
High -- | Low -- °F
Precip. -- in
6:20 AM 5:41 PM
Waxing Gibbous, 97% visible
Pressure 29.75 in
Visibility 7.0 miles
Clouds Overcast 1500 ft
Windchill 32 °F
Dew Point 31 °F
Humidity 85%
Rainfall 0.00 in
Snow Depth Not available.
UV 0 out of 12
Pollen .50 out of 12
Air Quality Not available.
Flu Activity Not available.
METAR KGYY 032345Z 26010G20KT 7SM OVC015 03/M02 A2975

More Conditions Fewer Conditions

Pressure 29.75 in
Visibility 7.0 miles
Clouds Overcast 1500 ft
Windchill 32 °F
Dew Point 31 °F
Humidity 85%
Rainfall 0.00 in
Snow Depth Not available.
UV 0 out of 12
Pollen .50 out of 12
Air Quality Not available.
Flu Activity Not available.
METAR KGYY 032345Z 26010G20KT 7SM OVC015 03/M02 A2975

More Conditions Fewer Conditions

10-Day Weather Forecast

Almanac

Astronomy

Mar. 03, 2015 Rise Set
Actual Time
Civil Twilight
Nautical Twilight
Astronomical Twilight
Moon
Length of Visible Light
Length of Day
Tomorrow will be .
, % of the Moon is Illuminated

Today's Extremes

State Highs State Lows

Community

WunderPhotos

Upload Photos

1,802,340 photos uploaded!

WunderBlogs® & News

Nearby

Air Quality

  Air Quality AQ Index Pollutant
Not available.

Snow Depth

Station Depth Elevation

Earthquake Activity

City Distance Mag. Time & Date
Minimum magnitude displayed is 2.5.

Coastal Water Temperatures

Place Temperature

Nearby Weather Stations